Time;durP1;ratioP1;P1;durP2;ratioP2;P2;SDS_P1;SDS_P2;PMS_P1;PMS_P2;Temp;Humidity;BMP_temperature;BMP_pressure;BME280_temperature;BME280_humidity;BME280_pressure;Samples;Min_cycle;Max_cycle;Signal;HPM_P1;HPM_P2
2022/01/13 00:02:31;;;;;;;20.03;9.87;;;4.00;99.90;;;;;;5025715;28;20978;-67
2022/01/13 00:04:58;;;;;;;7.67;4.80;;;4.00;99.90;;;;;;5030289;28;20538;-67
2022/01/13 00:07:26;;;;;;;16.97;8.40;;;4.00;99.90;;;;;;5018275;28;21322;-67
2022/01/13 00:09:53;;;;;;;9.17;4.53;;;4.10;99.90;;;;;;5028551;28;20582;-67
2022/01/13 00:12:23;;;;;;;25.20;8.90;;;4.10;99.90;;;;;;5031101;28;20475;-66
2022/01/13 00:15:08;;;;;;;25.50;7.67;;;4.00;99.90;;;;;;5010416;28;20486;-67
2022/01/13 00:17:56;;;;;;;15.90;7.07;;;4.10;99.90;;;;;;5026729;28;20482;-67
2022/01/13 00:20:48;;;;;;;22.07;9.60;;;4.00;99.90;;;;;;5026624;28;20952;-66
2022/01/13 00:26:02;;;;;;;19.67;7.50;;;3.90;99.90;;;;;;5021679;28;20425;-66
2022/01/13 00:28:29;;;;;;;12.40;6.87;;;3.90;99.90;;;;;;5029867;28;20971;-66
2022/01/13 00:30:58;;;;;;;21.97;9.57;;;4.00;99.90;;;;;;5018990;28;20459;-66
2022/01/13 00:33:26;;;;;;;13.20;11.10;;;4.00;99.90;;;;;;5030354;28;20460;-66
2022/01/13 00:35:55;;;;;;;11.37;6.07;;;4.00;99.90;;;;;;5026813;28;20441;-66
2022/01/13 00:38:23;;;;;;;8.53;5.70;;;4.00;99.90;;;;;;5030295;28;20449;-67
2022/01/13 00:40:50;;;;;;;22.40;9.80;;;4.00;99.90;;;;;;5028470;28;20524;-67
2022/01/13 00:43:17;;;;;;;17.30;7.07;;;4.00;99.90;;;;;;5031286;28;20948;-67
2022/01/13 00:45:47;;;;;;;24.30;12.60;;;3.90;99.90;;;;;;5037682;28;20461;-67
2022/01/13 00:48:14;;;;;;;17.67;7.33;;;4.00;99.90;;;;;;5049575;28;20453;-67
2022/01/13 00:50:41;;;;;;;20.53;9.43;;;4.00;99.90;;;;;;5017560;28;20632;-67
2022/01/13 00:53:08;;;;;;;13.33;6.47;;;4.00;99.90;;;;;;5022564;28;21463;-67
2022/01/13 00:55:47;;;;;;;17.63;7.10;;;4.00;99.90;;;;;;5030730;28;20543;-68
2022/01/13 00:58:15;;;;;;;25.30;9.23;;;3.90;99.90;;;;;;5031043;28;20890;-67
2022/01/13 01:00:43;;;;;;;25.37;10.50;;;3.80;99.90;;;;;;5024632;28;20984;-68
2022/01/13 01:03:11;;;;;;;20.47;9.37;;;3.80;99.90;;;;;;5020802;28;20429;-67
2022/01/13 01:05:38;;;;;;;23.30;9.10;;;3.80;99.90;;;;;;5019513;28;20470;-67
2022/01/13 01:08:06;;;;;;;18.20;7.47;;;3.90;99.90;;;;;;5007435;28;20523;-69
2022/01/13 01:10:34;;;;;;;22.00;8.97;;;3.90;99.90;;;;;;5021154;28;20828;-66
2022/01/13 01:13:11;;;;;;;17.73;9.50;;;4.00;99.90;;;;;;5015044;28;20491;-66
2022/01/13 01:15:40;;;;;;;25.63;12.60;;;3.90;99.90;;;;;;5002335;28;20443;-66
2022/01/13 01:18:18;;;;;;;22.63;7.63;;;3.80;99.90;;;;;;5009720;28;20478;-67
2022/01/13 01:21:03;;;;;;;23.17;9.77;;;3.90;99.90;;;;;;5018134;28;20447;-66
2022/01/13 01:23:35;;;;;;;21.40;10.53;;;3.90;99.90;;;;;;5025461;28;20437;-66
2022/01/13 01:26:07;;;;;;;22.03;9.37;;;3.90;99.90;;;;;;5023842;28;20527;-66
2022/01/13 01:28:44;;;;;;;21.10;10.73;;;4.00;99.90;;;;;;5028757;28;20462;-67
2022/01/13 01:31:13;;;;;;;25.07;12.13;;;3.90;99.90;;;;;;5012728;28;20555;-68
2022/01/13 01:33:46;;;;;;;25.83;11.00;;;4.00;99.90;;;;;;5014077;28;20441;-66
2022/01/13 01:36:15;;;;;;;23.27;10.80;;;4.10;99.90;;;;;;5023196;28;20549;-66
2022/01/13 01:38:46;;;;;;;28.23;11.23;;;4.10;99.90;;;;;;5010968;28;20444;-66
2022/01/13 01:41:13;;;;;;;30.23;10.03;;;4.10;99.90;;;;;;5030382;28;20437;-67
2022/01/13 01:43:41;;;;;;;25.37;10.43;;;4.00;99.90;;;;;;5027376;28;22883;-67
2022/01/13 01:46:08;;;;;;;30.60;12.57;;;4.00;99.90;;;;;;5027250;28;20442;-67
2022/01/13 01:48:36;;;;;;;39.80;13.00;;;3.80;99.90;;;;;;5019562;28;20972;-66
2022/01/13 01:51:04;;;;;;;4.97;4.50;;;3.80;99.90;;;;;;5036954;28;20437;-66
2022/01/13 01:53:31;;;;;;;35.17;8.77;;;3.90;99.90;;;;;;4998375;28;20495;-67
2022/01/13 01:55:58;;;;;;;44.53;7.63;;;3.90;99.90;;;;;;5009637;28;21613;-66
2022/01/13 01:58:26;;;;;;;42.73;10.43;;;3.90;99.90;;;;;;5023383;28;21133;-67
2022/01/13 02:00:55;;;;;;;9.93;5.77;;;4.00;99.90;;;;;;5017540;28;20467;-66
2022/01/13 02:03:24;;;;;;;40.63;10.50;;;4.10;99.90;;;;;;5030141;28;20577;-67
2022/01/13 02:05:51;;;;;;;15.70;7.10;;;4.20;99.90;;;;;;5025822;28;20437;-67
2022/01/13 02:08:18;;;;;;;13.93;5.07;;;4.10;99.90;;;;;;5026882;28;20520;-66
2022/01/13 02:10:45;;;;;;;25.20;8.37;;;4.10;99.90;;;;;;5020173;28;20465;-67
2022/01/13 02:13:19;;;;;;;34.30;12.77;;;4.10;99.90;;;;;;5010499;28;20449;-66
2022/01/13 02:16:01;;;;;;;8.90;3.57;;;4.10;99.90;;;;;;5027064;28;26955;-67
2022/01/13 02:18:32;;;;;;;24.10;7.90;;;4.10;99.90;;;;;;5028018;28;21095;-66
2022/01/13 02:21:01;;;;;;;14.03;6.40;;;4.10;99.90;;;;;;5030799;28;20520;-67
2022/01/13 02:23:33;;;;;;;25.93;9.87;;;4.00;99.90;;;;;;5014032;28;21648;-67
2022/01/13 02:26:00;;;;;;;20.47;8.67;;;3.90;99.90;;;;;;5019285;28;20482;-66
2022/01/13 02:28:29;;;;;;;22.13;9.27;;;3.90;99.90;;;;;;5017755;28;20551;-67
2022/01/13 02:30:56;;;;;;;22.60;10.70;;;3.90;99.90;;;;;;5019527;28;20523;-67
2022/01/13 02:33:23;;;;;;;27.30;9.63;;;3.90;99.90;;;;;;5014790;28;21254;-67
2022/01/13 02:35:53;;;;;;;19.07;10.00;;;3.90;99.90;;;;;;5030476;28;20590;-67
2022/01/13 02:38:22;;;;;;;22.23;11.20;;;4.00;99.90;;;;;;5025774;28;20612;-67
2022/01/13 02:40:55;;;;;;;25.07;9.33;;;4.00;99.90;;;;;;5029765;28;20456;-67
2022/01/13 02:43:22;;;;;;;22.33;10.97;;;4.00;99.90;;;;;;5028715;28;20431;-66
2022/01/13 02:46:05;;;;;;;45.37;13.13;;;3.90;99.90;;;;;;5021743;28;20623;-66
2022/01/13 02:48:32;;;;;;;22.80;7.27;;;3.80;99.90;;;;;;5020995;28;20585;-66
2022/01/13 02:51:00;;;;;;;23.17;11.10;;;3.90;99.90;;;;;;5030643;28;20466;-66
2022/01/13 02:53:29;;;;;;;16.53;8.90;;;3.80;99.90;;;;;;5027750;28;20582;-66
2022/01/13 02:56:01;;;;;;;29.23;9.93;;;3.80;99.90;;;;;;5030845;28;20438;-67
2022/01/13 02:58:29;;;;;;;22.53;10.63;;;3.80;99.90;;;;;;5024598;28;20479;-67
2022/01/13 03:00:56;;;;;;;16.57;9.10;;;3.90;99.90;;;;;;5019677;28;20442;-67
2022/01/13 03:03:23;;;;;;;36.90;13.03;;;3.90;99.90;;;;;;5022888;28;20655;-67
2022/01/13 03:05:51;;;;;;;31.40;8.93;;;4.00;99.90;;;;;;5004686;28;21093;-67
2022/01/13 03:08:18;;;;;;;30.70;11.27;;;4.00;99.90;;;;;;5006555;28;21483;-67
2022/01/13 03:10:46;;;;;;;22.77;11.10;;;4.00;99.90;;;;;;5017587;28;22415;-67
2022/01/13 03:13:13;;;;;;;28.83;13.37;;;3.90;99.90;;;;;;5025235;28;20465;-67
2022/01/13 03:15:40;;;;;;;12.70;6.60;;;3.80;99.90;;;;;;5018771;28;20536;-67
2022/01/13 03:18:07;;;;;;;13.00;8.17;;;3.90;99.90;;;;;;5026215;28;20514;-67
2022/01/13 03:20:34;;;;;;;20.37;9.60;;;3.80;99.90;;;;;;5034740;28;20436;-67
2022/01/13 03:23:04;;;;;;;22.30;9.57;;;3.90;99.90;;;;;;5024325;28;20572;-67
2022/01/13 03:25:31;;;;;;;20.73;10.80;;;3.90;99.90;;;;;;5033665;28;20616;-68
2022/01/13 03:28:06;;;;;;;23.23;8.13;;;3.80;99.90;;;;;;5023195;28;20592;-68
2022/01/13 03:30:34;;;;;;;26.10;11.17;;;3.80;99.90;;;;;;5012528;28;22087;-67
2022/01/13 03:33:02;;;;;;;28.30;8.80;;;3.90;99.90;;;;;;5021035;28;20493;-67
2022/01/13 03:35:29;;;;;;;32.13;11.60;;;3.90;99.90;;;;;;5025793;28;20436;-67
2022/01/13 03:37:58;;;;;;;22.20;8.10;;;3.90;99.90;;;;;;5024810;28;20467;-68
2022/01/13 03:40:25;;;;;;;14.33;7.00;;;3.90;99.90;;;;;;5032851;28;20433;-68
2022/01/13 03:42:53;;;;;;;15.80;7.30;;;3.90;99.90;;;;;;5020399;28;20576;-67
2022/01/13 03:45:21;;;;;;;24.90;8.20;;;3.90;99.90;;;;;;5028639;28;20610;-68
2022/01/13 03:47:49;;;;;;;22.87;7.83;;;3.80;99.90;;;;;;5027658;28;20492;-68
2022/01/13 03:50:16;;;;;;;23.57;7.93;;;3.90;99.90;;;;;;5019261;28;20585;-69
2022/01/13 03:53:21;;;;;;;26.33;8.67;;;3.80;99.90;;;;;;5023213;28;20683;-67
2022/01/13 03:56:54;;;;;;;21.20;9.57;;;3.70;99.90;;;;;;5024657;28;20433;-66
2022/01/13 04:00:05;;;;;;;37.10;13.50;;;3.70;99.90;;;;;;4943839;28;21481;-67
2022/01/13 04:02:34;;;;;;;13.33;6.40;;;3.60;99.90;;;;;;4926946;28;20490;-67
2022/01/13 04:05:01;;;;;;;19.53;10.93;;;3.60;99.90;;;;;;4997137;28;20470;-67
2022/01/13 04:07:28;;;;;;;17.00;9.57;;;3.60;99.90;;;;;;4956012;28;20491;-68
2022/01/13 04:10:43;;;;;;;40.70;11.80;;;3.60;99.90;;;;;;5028772;28;20547;-69
2022/01/13 04:13:22;;;;;;;8.63;2.70;;;3.70;99.90;;;;;;5021716;28;20461;-67
2022/01/13 04:15:50;;;;;;;13.37;5.83;;;3.70;99.90;;;;;;5008132;28;20582;-68
2022/01/13 04:18:18;;;;;;;27.03;10.40;;;3.70;99.90;;;;;;4996764;28;21680;-68
2022/01/13 04:20:45;;;;;;;40.17;12.93;;;3.80;99.90;;;;;;5036261;28;20665;-68
2022/01/13 04:23:13;;;;;;;13.63;7.23;;;3.80;99.90;;;;;;5018962;28;20740;-68
2022/01/13 04:25:43;;;;;;;23.70;8.73;;;3.70;99.90;;;;;;5008765;28;20462;-68
2022/01/13 04:28:12;;;;;;;28.37;9.47;;;3.70;99.90;;;;;;5004871;28;20480;-68
2022/01/13 04:30:48;;;;;;;13.33;8.17;;;3.80;99.90;;;;;;5023216;28;20459;-68
2022/01/13 04:33:15;;;;;;;13.63;6.40;;;3.70;99.90;;;;;;5029592;28;20984;-68
2022/01/13 04:35:44;;;;;;;22.63;10.67;;;3.70;99.90;;;;;;5029142;28;21027;-68
2022/01/13 04:38:13;;;;;;;22.97;11.10;;;3.60;99.90;;;;;;5031356;28;21279;-67
2022/01/13 04:40:45;;;;;;;23.63;12.63;;;3.50;99.90;;;;;;5011187;28;20606;-68
2022/01/13 04:43:13;;;;;;;36.33;12.57;;;3.60;99.90;;;;;;5029164;28;21352;-69
2022/01/13 04:45:40;;;;;;;21.23;10.73;;;3.60;99.90;;;;;;5021506;28;20535;-69
2022/01/13 04:48:10;;;;;;;29.47;10.50;;;3.60;99.90;;;;;;5018580;28;21090;-68
2022/01/13 04:50:37;;;;;;;24.73;10.10;;;3.60;99.90;;;;;;5023322;28;20978;-68
2022/01/13 04:53:07;;;;;;;14.30;5.80;;;3.60;99.90;;;;;;5022307;28;20590;-69
2022/01/13 04:55:36;;;;;;;12.17;5.60;;;3.60;99.90;;;;;;5032603;28;21039;-69
2022/01/13 04:58:03;;;;;;;32.80;10.63;;;3.60;99.90;;;;;;5041323;28;20478;-67
2022/01/13 05:00:32;;;;;;;32.20;9.47;;;3.60;99.90;;;;;;5017296;28;21194;-68
2022/01/13 05:02:59;;;;;;;21.53;9.20;;;3.50;99.90;;;;;;5007611;28;20480;-68
2022/01/13 05:05:27;;;;;;;9.33;6.50;;;3.50;99.90;;;;;;5026254;28;20570;-66
2022/01/13 05:07:54;;;;;;;27.80;10.13;;;3.50;99.90;;;;;;5019284;28;20564;-67
2022/01/13 05:10:23;;;;;;;26.17;10.93;;;3.40;99.90;;;;;;5023659;28;20554;-67
2022/01/13 05:12:54;;;;;;;33.10;8.53;;;3.50;99.90;;;;;;5029057;28;20437;-68
2022/01/13 05:15:26;;;;;;;7.53;6.23;;;3.50;99.90;;;;;;5029555;28;20443;-68
2022/01/13 05:20:41;;;;;;;7.70;3.73;;;3.40;99.90;;;;;;5030183;28;20466;-67
2022/01/13 05:23:10;;;;;;;28.37;11.80;;;3.50;99.90;;;;;;5022105;28;22774;-66
2022/01/13 05:25:40;;;;;;;27.73;12.67;;;3.40;99.90;;;;;;5037931;28;20458;-67
2022/01/13 05:28:08;;;;;;;24.27;8.77;;;3.50;99.90;;;;;;5012179;28;20465;-67
2022/01/13 05:30:35;;;;;;;24.57;13.03;;;3.70;99.90;;;;;;5001732;28;20726;-67
2022/01/13 05:33:03;;;;;;;14.50;7.83;;;3.80;99.90;;;;;;5023194;28;20441;-67
2022/01/13 05:35:30;;;;;;;42.13;15.67;;;3.80;99.90;;;;;;5006309;28;20553;-67
2022/01/13 05:37:58;;;;;;;13.27;8.97;;;3.80;99.90;;;;;;5040540;28;20964;-68
2022/01/13 05:40:25;;;;;;;15.10;10.83;;;3.70;99.90;;;;;;5041217;28;20552;-68
2022/01/13 05:42:53;;;;;;;47.80;13.30;;;3.50;99.90;;;;;;5043345;28;21231;-67
2022/01/13 05:45:28;;;;;;;19.80;9.10;;;3.40;99.90;;;;;;5036787;28;20552;-67
2022/01/13 05:47:55;;;;;;;33.47;13.13;;;3.50;99.90;;;;;;5048502;28;20508;-67
2022/01/13 05:50:24;;;;;;;25.10;8.60;;;3.60;99.90;;;;;;5042274;28;21553;-68
2022/01/13 05:52:52;;;;;;;20.87;11.30;;;3.70;99.90;;;;;;5036654;28;20439;-67
2022/01/13 05:55:19;;;;;;;39.03;14.77;;;3.70;99.90;;;;;;5023683;28;20544;-67
2022/01/13 05:57:46;;;;;;;21.07;11.60;;;3.70;99.90;;;;;;5034828;28;20446;-67
2022/01/13 06:00:17;;;;;;;23.43;12.30;;;3.60;99.90;;;;;;5042766;28;20463;-68
2022/01/13 06:02:46;;;;;;;28.00;10.50;;;3.60;99.90;;;;;;5023038;28;20984;-67
2022/01/13 06:05:13;;;;;;;26.43;12.53;;;3.70;99.90;;;;;;5050252;28;20471;-69
2022/01/13 06:07:40;;;;;;;37.83;15.13;;;3.70;99.90;;;;;;5037351;28;20529;-68
2022/01/13 06:10:10;;;;;;;29.90;8.80;;;3.70;99.90;;;;;;5035634;28;20463;-66
2022/01/13 06:12:37;;;;;;;16.93;8.30;;;3.90;99.90;;;;;;5032656;28;20601;-66
2022/01/13 06:15:06;;;;;;;19.50;8.80;;;3.80;99.90;;;;;;5029752;28;21158;-67
2022/01/13 06:17:35;;;;;;;22.27;12.33;;;3.80;99.90;;;;;;5039756;28;21228;-68
2022/01/13 06:20:03;;;;;;;21.23;8.90;;;3.80;99.90;;;;;;5046039;28;20429;-68
2022/01/13 06:22:30;;;;;;;33.43;13.93;;;3.80;99.90;;;;;;5042443;28;20449;-67
2022/01/13 06:24:57;;;;;;;35.10;14.37;;;3.80;99.90;;;;;;5041026;28;20425;-67
2022/01/13 06:27:25;;;;;;;35.80;16.43;;;3.70;99.90;;;;;;5051745;28;20489;-67
2022/01/13 06:29:53;;;;;;;28.30;13.30;;;3.80;99.90;;;;;;5051734;28;20437;-68
2022/01/13 06:32:21;;;;;;;30.07;10.27;;;3.70;99.90;;;;;;5046537;28;20437;-67
2022/01/13 06:34:50;;;;;;;35.67;13.37;;;3.70;99.90;;;;;;5045797;28;20565;-68
2022/01/13 06:37:18;;;;;;;29.90;12.93;;;3.70;99.90;;;;;;5042937;28;20507;-67
2022/01/13 06:39:46;;;;;;;30.87;13.03;;;3.70;99.90;;;;;;5037775;28;20469;-67
2022/01/13 06:42:13;;;;;;;22.93;7.77;;;3.70;99.90;;;;;;5051281;28;20525;-68
2022/01/13 06:44:40;;;;;;;53.40;14.90;;;3.70;99.90;;;;;;5032917;28;20650;-68
2022/01/13 06:47:08;;;;;;;49.00;16.23;;;3.70;99.90;;;;;;5037259;28;20482;-67
2022/01/13 06:49:35;;;;;;;39.97;13.73;;;3.80;99.90;;;;;;5044929;28;20601;-67
2022/01/13 06:52:05;;;;;;;21.67;10.50;;;3.70;99.90;;;;;;5038331;28;20421;-67
2022/01/13 06:54:33;;;;;;;19.47;8.73;;;3.50;99.90;;;;;;5040756;28;20453;-68
2022/01/13 06:57:00;;;;;;;31.67;12.23;;;3.40;99.90;;;;;;5049786;28;20477;-67
2022/01/13 06:59:26;;;;;;;30.30;15.30;;;3.40;99.90;;;;;;5041912;28;20442;-67
2022/01/13 07:01:56;;;;;;;22.00;11.17;;;3.50;99.90;;;;;;5050606;28;20421;-68
2022/01/13 07:04:23;;;;;;;19.83;9.40;;;3.50;99.90;;;;;;5046557;28;20491;-67
2022/01/13 07:06:50;;;;;;;19.60;8.07;;;3.50;99.90;;;;;;5040711;28;20453;-65
2022/01/13 07:09:19;;;;;;;25.77;12.63;;;3.50;99.90;;;;;;5048836;28;20441;-67
2022/01/13 07:11:46;;;;;;;19.73;11.07;;;3.40;99.90;;;;;;5048855;28;20628;-67
2022/01/13 07:14:14;;;;;;;32.70;14.13;;;3.40;99.90;;;;;;5035235;28;20552;-68
2022/01/13 07:16:42;;;;;;;18.93;8.50;;;3.40;99.90;;;;;;5042246;28;20901;-68
2022/01/13 07:19:11;;;;;;;44.77;13.23;;;3.30;99.90;;;;;;5046636;28;20445;-69
2022/01/13 07:21:40;;;;;;;13.50;7.47;;;3.20;99.90;;;;;;5035327;28;20549;-68
2022/01/13 07:24:08;;;;;;;23.67;13.03;;;3.30;99.90;;;;;;5033324;28;20433;-67
2022/01/13 07:26:36;;;;;;;25.27;9.73;;;3.30;99.90;;;;;;5045726;28;20999;-68
2022/01/13 07:29:04;;;;;;;14.50;8.43;;;3.40;99.90;;;;;;5045944;28;20437;-68
2022/01/13 07:31:31;;;;;;;16.83;6.20;;;3.50;99.90;;;;;;5046562;28;20459;-68
2022/01/13 07:33:58;;;;;;;26.93;9.50;;;3.40;99.90;;;;;;5036250;28;20596;-68
2022/01/13 07:36:25;;;;;;;13.93;8.27;;;3.40;99.90;;;;;;5049572;28;22177;-67
2022/01/13 07:38:52;;;;;;;31.37;11.67;;;3.40;99.90;;;;;;5030271;28;20521;-67
2022/01/13 07:41:19;;;;;;;27.47;8.30;;;3.40;99.90;;;;;;5043751;28;21146;-67
2022/01/13 07:43:53;;;;;;;24.17;8.73;;;3.40;99.90;;;;;;5051375;28;20486;-67
2022/01/13 07:46:20;;;;;;;13.43;8.13;;;3.20;99.90;;;;;;5042324;28;21035;-67
2022/01/13 07:48:47;;;;;;;12.80;6.97;;;3.20;99.90;;;;;;5048423;28;20536;-67
2022/01/13 07:51:15;;;;;;;28.20;12.63;;;3.20;99.90;;;;;;5039545;28;20440;-67
2022/01/13 07:53:42;;;;;;;21.53;12.00;;;3.20;99.90;;;;;;5046092;28;20465;-67
2022/01/13 07:56:09;;;;;;;22.43;10.53;;;3.30;99.90;;;;;;5052308;28;20446;-67
2022/01/13 07:58:37;;;;;;;15.63;8.23;;;3.20;99.90;;;;;;5046755;28;20445;-67
2022/01/13 08:01:05;;;;;;;40.43;14.90;;;3.10;99.90;;;;;;5036034;28;20574;-67
2022/01/13 08:03:32;;;;;;;30.93;10.17;;;3.20;99.90;;;;;;5041575;28;20425;-68
2022/01/13 08:06:00;;;;;;;22.07;10.87;;;3.30;99.90;;;;;;5045591;28;20436;-66
2022/01/13 08:08:27;;;;;;;32.97;13.07;;;3.40;99.90;;;;;;5049387;28;20445;-67
2022/01/13 08:10:54;;;;;;;34.83;13.13;;;3.50;99.90;;;;;;5045027;28;20955;-67
2022/01/13 08:13:21;;;;;;;17.57;6.10;;;3.50;99.90;;;;;;5046090;28;20536;-68
2022/01/13 08:15:51;;;;;;;32.00;15.17;;;3.40;99.90;;;;;;5041957;28;20610;-67
2022/01/13 08:21:04;;;;;;;19.63;8.33;;;3.30;99.90;;;;;;5045344;28;20425;-67
2022/01/13 08:23:31;;;;;;;30.33;12.70;;;3.50;99.90;;;;;;5040048;28;20516;-67
2022/01/13 08:25:58;;;;;;;29.57;16.30;;;3.50;99.90;;;;;;5044196;28;20530;-67
2022/01/13 08:28:27;;;;;;;31.23;15.30;;;3.60;99.90;;;;;;5035496;28;20666;-68
2022/01/13 08:30:54;;;;;;;36.67;14.03;;;3.70;99.90;;;;;;5037372;28;20455;-67
2022/01/13 08:33:23;;;;;;;28.67;10.73;;;3.70;99.90;;;;;;5039964;28;20653;-66
2022/01/13 08:35:50;;;;;;;13.13;9.23;;;3.70;99.90;;;;;;5049148;28;20477;-68
2022/01/13 08:38:18;;;;;;;31.00;11.27;;;3.70;99.90;;;;;;5035376;28;20457;-66
2022/01/13 08:40:47;;;;;;;57.07;11.40;;;3.70;99.90;;;;;;5036501;28;21632;-67
2022/01/13 08:43:14;;;;;;;15.40;6.43;;;3.70;99.90;;;;;;5046358;28;20985;-67
2022/01/13 08:45:41;;;;;;;25.00;10.07;;;3.80;99.90;;;;;;5053697;28;20553;-68
2022/01/13 08:48:08;;;;;;;20.60;10.67;;;3.70;99.90;;;;;;5050088;28;20456;-67
2022/01/13 08:50:37;;;;;;;28.30;13.87;;;3.70;99.90;;;;;;5044965;28;20556;-67
2022/01/13 08:53:04;;;;;;;32.00;13.33;;;3.70;99.90;;;;;;5040854;28;20522;-68
2022/01/13 08:55:31;;;;;;;32.30;10.00;;;3.70;99.90;;;;;;5046413;28;20516;-67
2022/01/13 08:57:58;;;;;;;40.33;12.47;;;3.70;99.90;;;;;;5037685;28;20548;-67
2022/01/13 09:00:26;;;;;;;37.97;16.27;;;3.70;99.90;;;;;;5047659;28;20522;-66
2022/01/13 09:02:53;;;;;;;25.43;12.00;;;3.80;99.90;;;;;;5048824;28;20523;-68
2022/01/13 09:05:21;;;;;;;17.80;6.03;;;3.70;99.90;;;;;;5041228;28;20579;-67
2022/01/13 09:07:49;;;;;;;17.33;7.80;;;3.70;99.90;;;;;;5047318;28;20495;-67
2022/01/13 09:10:17;;;;;;;29.67;14.43;;;3.60;99.90;;;;;;5031196;28;20467;-67
2022/01/13 09:12:45;;;;;;;37.13;9.83;;;3.70;99.90;;;;;;5047467;28;20546;-66
2022/01/13 09:15:17;;;;;;;34.47;11.57;;;3.70;99.90;;;;;;5051851;28;20503;-67
2022/01/13 09:17:46;;;;;;;32.10;13.77;;;3.80;99.90;;;;;;5053860;28;20445;-66
2022/01/13 09:20:15;;;;;;;38.83;14.10;;;3.80;99.90;;;;;;5047821;28;20469;-67
2022/01/13 09:22:43;;;;;;;32.97;15.77;;;3.80;99.90;;;;;;5035558;28;20468;-66
2022/01/13 09:25:12;;;;;;;31.03;11.13;;;3.70;99.90;;;;;;5053062;28;21003;-66
2022/01/13 09:27:40;;;;;;;20.60;9.93;;;3.70;99.90;;;;;;5039464;28;20951;-67
2022/01/13 09:30:09;;;;;;;32.77;13.97;;;3.70;99.90;;;;;;5046943;28;20572;-67
2022/01/13 09:32:36;;;;;;;33.40;13.70;;;3.70;99.90;;;;;;5040910;28;20612;-66
2022/01/13 09:35:05;;;;;;;32.03;16.33;;;3.80;99.90;;;;;;5038712;28;20478;-68
2022/01/13 09:37:32;;;;;;;31.47;12.90;;;3.90;99.90;;;;;;5038454;28;21027;-68
2022/01/13 09:39:59;;;;;;;35.93;12.77;;;4.00;99.90;;;;;;5047152;28;20529;-66
2022/01/13 09:42:30;;;;;;;25.40;10.83;;;4.10;99.90;;;;;;5049931;28;20466;-68
2022/01/13 09:44:58;;;;;;;33.77;10.60;;;4.00;99.90;;;;;;5049910;28;20437;-67
2022/01/13 09:47:25;;;;;;;33.33;17.43;;;4.10;99.90;;;;;;5046661;28;20463;-68
2022/01/13 09:49:53;;;;;;;26.63;12.70;;;4.00;99.90;;;;;;5046156;28;20554;-68
2022/01/13 09:52:21;;;;;;;31.60;14.60;;;3.90;99.90;;;;;;5048657;28;20422;-68
2022/01/13 09:54:48;;;;;;;18.20;9.27;;;3.90;99.90;;;;;;5046706;28;20568;-68
2022/01/13 09:57:16;;;;;;;17.93;8.57;;;3.90;99.90;;;;;;5045108;28;20857;-67
2022/01/13 09:59:44;;;;;;;29.97;13.00;;;3.90;99.90;;;;;;5049179;28;20496;-67
2022/01/13 10:02:12;;;;;;;20.73;10.73;;;3.90;99.90;;;;;;5048018;28;20471;-66
2022/01/13 10:04:49;;;;;;;24.00;9.87;;;4.10;99.90;;;;;;5047280;28;20785;-68
2022/01/13 10:07:29;;;;;;;21.70;9.27;;;4.10;99.90;;;;;;5048282;28;20565;-67
2022/01/13 10:09:59;;;;;;;40.50;10.57;;;4.10;99.90;;;;;;5047925;28;20466;-67
2022/01/13 10:12:30;;;;;;;32.33;11.27;;;4.00;99.90;;;;;;5046832;28;20491;-68
2022/01/13 10:17:50;;;;;;;34.30;13.40;;;4.10;99.90;;;;;;5039286;28;20593;-67
2022/01/13 10:20:21;;;;;;;32.27;12.20;;;4.30;99.90;;;;;;5051289;28;20553;-69
2022/01/13 10:22:49;;;;;;;36.70;12.03;;;4.20;99.90;;;;;;5051409;28;20727;-68
2022/01/13 10:25:27;;;;;;;47.20;12.27;;;4.10;99.90;;;;;;5043981;28;20437;-68
2022/01/13 10:27:54;;;;;;;27.07;12.70;;;4.30;99.90;;;;;;5029167;28;20581;-68
2022/01/13 10:30:25;;;;;;;22.87;9.57;;;4.40;99.90;;;;;;5036739;28;20450;-68
2022/01/13 10:32:55;;;;;;;8.57;5.83;;;4.50;99.90;;;;;;5044026;28;20573;-68
2022/01/13 10:35:23;;;;;;;38.07;14.10;;;4.50;99.90;;;;;;5049884;28;20874;-67
2022/01/13 10:37:54;;;;;;;25.67;11.03;;;4.50;99.90;;;;;;5049079;28;21059;-68
2022/01/13 10:40:25;;;;;;;30.90;11.73;;;4.40;99.90;;;;;;5050004;28;20433;-68
2022/01/13 10:43:10;;;;;;;25.20;11.40;;;4.60;99.90;;;;;;5054023;28;20462;-67
2022/01/13 10:45:41;;;;;;;26.03;11.23;;;4.80;99.90;;;;;;5051203;28;20561;-68
2022/01/13 10:48:10;;;;;;;31.60;10.63;;;4.80;99.90;;;;;;5048391;28;20456;-68
2022/01/13 10:50:41;;;;;;;28.47;9.83;;;4.50;99.90;;;;;;5047172;28;20446;-68
2022/01/13 10:53:11;;;;;;;29.57;10.10;;;4.50;99.90;;;;;;5053108;28;20437;-69
2022/01/13 10:55:42;;;;;;;30.57;11.10;;;4.50;99.90;;;;;;5055309;28;20532;-68
2022/01/13 10:58:09;;;;;;;41.73;12.70;;;4.50;99.90;;;;;;5049771;28;20535;-68
2022/01/13 11:00:38;;;;;;;20.10;10.63;;;4.60;99.90;;;;;;5048090;28;20901;-68
2022/01/13 11:03:09;;;;;;;47.30;13.03;;;4.60;99.90;;;;;;5053357;28;20550;-68
2022/01/13 11:05:42;;;;;;;35.07;12.10;;;4.70;99.90;;;;;;5059033;28;20964;-70
2022/01/13 11:08:10;;;;;;;14.07;4.87;;;4.90;99.90;;;;;;5057319;28;20457;-69
2022/01/13 11:10:40;;;;;;;34.37;11.03;;;4.80;99.90;;;;;;5048496;28;20468;-69
2022/01/13 11:13:08;;;;;;;54.40;15.30;;;4.70;99.90;;;;;;5047718;28;20940;-67
2022/01/13 11:15:39;;;;;;;28.47;11.43;;;4.80;99.90;;;;;;5049307;28;20457;-68
2022/01/13 11:18:07;;;;;;;25.20;10.70;;;4.80;99.90;;;;;;5045879;28;20540;-68
2022/01/13 11:20:34;;;;;;;19.70;9.43;;;5.10;99.90;;;;;;5050926;28;20478;-68
2022/01/13 11:23:01;;;;;;;31.20;8.37;;;5.10;99.90;;;;;;5048817;28;20960;-67
2022/01/13 11:25:28;;;;;;;13.03;8.77;;;5.00;99.90;;;;;;5050121;28;21014;-68
2022/01/13 11:27:58;;;;;;;16.23;6.43;;;4.80;99.90;;;;;;5041263;28;20682;-68
2022/01/13 11:30:28;;;;;;;29.57;11.97;;;4.80;99.90;;;;;;5044552;28;20471;-69
2022/01/13 11:32:56;;;;;;;23.90;6.77;;;4.70;99.90;;;;;;5052485;28;20546;-69
2022/01/13 11:35:28;;;;;;;20.90;11.70;;;4.80;99.90;;;;;;5045990;28;20550;-68
2022/01/13 11:37:57;;;;;;;52.83;13.00;;;4.80;99.90;;;;;;5045937;28;20590;-69
2022/01/13 11:40:40;;;;;;;8.50;6.10;;;4.80;99.90;;;;;;5048456;28;20490;-69
2022/01/13 11:43:22;;;;;;;51.97;14.67;;;4.80;99.90;;;;;;5047585;28;20490;-68
2022/01/13 11:45:50;;;;;;;23.20;10.97;;;4.90;99.90;;;;;;5051139;28;20817;-69
2022/01/13 11:48:20;;;;;;;21.97;9.50;;;4.90;99.90;;;;;;5045989;28;21048;-68
2022/01/13 11:50:52;;;;;;;30.90;12.73;;;5.10;99.90;;;;;;5046565;28;20462;-68
2022/01/13 11:53:21;;;;;;;17.77;9.03;;;5.30;99.90;;;;;;5045517;28;20429;-68
2022/01/13 11:55:52;;;;;;;38.43;14.30;;;5.50;99.90;;;;;;5051681;28;20546;-69
2022/01/13 11:58:22;;;;;;;11.90;8.20;;;5.60;99.90;;;;;;5048206;28;20452;-69
2022/01/13 12:00:51;;;;;;;12.60;5.20;;;5.50;99.90;;;;;;5050643;28;20468;-66
2022/01/13 12:03:27;;;;;;;35.40;12.57;;;5.60;99.90;;;;;;5047881;28;20539;-68
2022/01/13 12:05:56;;;;;;;38.07;14.57;;;5.70;99.90;;;;;;5051703;28;20477;-69
2022/01/13 12:08:45;;;;;;;27.33;12.53;;;5.90;99.90;;;;;;5048624;28;20430;-71
2022/01/13 12:11:39;;;;;;;33.17;12.40;;;6.60;99.90;;;;;;5043856;28;20459;-68
2022/01/13 12:14:45;;;;;;;28.70;12.40;;;7.20;99.90;;;;;;5042252;28;20523;-67
2022/01/13 12:17:27;;;;;;;32.83;11.83;;;8.30;99.90;;;;;;5040535;28;20496;-66
2022/01/13 12:20:02;;;;;;;31.40;11.00;;;9.00;99.90;;;;;;5044987;28;20491;-68
2022/01/13 12:22:42;;;;;;;38.50;16.07;;;9.40;99.90;;;;;;5043417;28;21040;-68
2022/01/13 12:25:12;;;;;;;28.37;12.80;;;9.40;99.90;;;;;;5036086;28;20517;-67
2022/01/13 12:27:48;;;;;;;33.07;13.90;;;10.20;99.90;;;;;;5034543;28;20490;-66
2022/01/13 12:30:17;;;;;;;26.20;12.60;;;11.00;99.90;;;;;;5043808;28;20470;-68
2022/01/13 12:32:46;;;;;;;33.63;12.57;;;10.60;99.90;;;;;;5047798;28;20612;-68
2022/01/13 12:35:15;;;;;;;28.10;12.77;;;11.00;99.90;;;;;;5046156;28;20478;-66
2022/01/13 12:37:44;;;;;;;33.20;14.00;;;11.30;99.90;;;;;;5045707;28;20544;-68
2022/01/13 12:40:14;;;;;;;27.20;14.97;;;11.50;99.90;;;;;;5046765;28;20466;-68
2022/01/13 12:42:50;;;;;;;26.53;14.80;;;11.80;99.90;;;;;;5043901;28;20998;-68
2022/01/13 12:45:32;;;;;;;29.40;11.37;;;11.90;99.90;;;;;;5037798;28;20649;-66
2022/01/13 12:48:09;;;;;;;33.43;11.00;;;12.30;99.90;;;;;;5047779;28;20562;-69
2022/01/13 12:50:39;;;;;;;28.40;12.83;;;12.30;99.90;;;;;;5036669;28;20726;-68
2022/01/13 12:53:16;;;;;;;26.03;12.23;;;12.10;99.90;;;;;;5042104;28;20450;-67
2022/01/13 12:55:47;;;;;;;23.83;10.33;;;12.40;99.90;;;;;;5050998;28;20486;-66
2022/01/13 12:58:14;;;;;;;28.40;12.10;;;12.40;99.90;;;;;;5059532;28;20474;-67
2022/01/13 13:00:41;;;;;;;32.50;12.60;;;12.30;99.90;;;;;;5044304;28;20559;-66
2022/01/13 13:03:08;;;;;;;21.83;12.47;;;12.50;99.90;;;;;;5050046;28;20618;-67
2022/01/13 13:05:41;;;;;;;29.67;13.70;;;13.00;99.90;;;;;;5041567;28;20938;-66
2022/01/13 13:08:12;;;;;;;27.87;12.27;;;13.10;99.90;;;;;;5044977;28;20943;-67